createdAt,value
2019-01-03T00:00:41.511Z,34.60
2019-01-03T00:01:41.535Z,29.70
2019-01-03T00:02:41.496Z,28.70
2019-01-03T00:03:41.491Z,27.20
2019-01-03T00:04:41.467Z,35.30
2019-01-03T00:05:41.456Z,34.70
2019-01-03T00:06:41.450Z,28.90
2019-01-03T00:07:41.474Z,31.70
2019-01-03T00:08:41.428Z,29.10
2019-01-03T00:09:41.424Z,28.00
2019-01-03T00:10:41.407Z,28.20
2019-01-03T00:11:41.394Z,27.70
2019-01-03T00:12:41.381Z,29.90
2019-01-03T00:13:41.381Z,26.20
2019-01-03T00:14:41.395Z,30.20
2019-01-03T00:15:41.347Z,28.40
2019-01-03T00:16:41.337Z,26.20
2019-01-03T00:17:41.325Z,25.70
2019-01-03T00:18:41.315Z,25.30
2019-01-03T00:19:41.320Z,23.60
2019-01-03T00:20:41.306Z,25.60
2019-01-03T00:21:41.281Z,23.00
2019-01-03T00:22:41.278Z,26.40
2019-01-03T00:23:41.261Z,27.10
2019-01-03T00:24:41.253Z,24.30
2019-01-03T00:25:41.248Z,24.60
2019-01-03T00:26:41.232Z,27.30
2019-01-03T00:27:41.228Z,22.30
2019-01-03T00:28:41.205Z,22.30
2019-01-03T00:29:41.196Z,24.10
2019-01-03T00:30:41.190Z,24.20
2019-01-03T00:31:41.202Z,20.50
2019-01-03T00:32:41.162Z,20.90
2019-01-03T00:33:41.150Z,23.70
2019-01-03T00:34:41.141Z,24.10
2019-01-03T00:35:41.129Z,27.10
2019-01-03T00:36:41.146Z,22.90
2019-01-03T00:37:41.125Z,20.40
2019-01-03T00:38:41.120Z,21.30
2019-01-03T00:39:41.100Z,21.00
2019-01-03T00:40:41.075Z,20.70
2019-01-03T00:41:41.063Z,20.10
2019-01-03T00:42:41.058Z,19.60
2019-01-03T00:43:41.049Z,25.30
2019-01-03T00:44:41.029Z,23.20
2019-01-03T00:45:41.020Z,19.70
2019-01-03T00:46:41.007Z,20.10
2019-01-03T00:47:41.001Z,23.20
2019-01-03T00:48:40.984Z,19.00
2019-01-03T00:49:40.986Z,18.10
2019-01-03T00:50:40.984Z,19.80
2019-01-03T00:51:40.951Z,18.40
2019-01-03T00:52:40.944Z,19.60
2019-01-03T00:53:40.936Z,20.00
2019-01-03T00:54:40.920Z,19.00
2019-01-03T00:55:40.920Z,21.40
2019-01-03T00:56:40.898Z,18.50
2019-01-03T00:57:40.887Z,17.40
2019-01-03T00:58:40.884Z,20.90
2019-01-03T00:59:40.870Z,16.30
2019-01-03T01:00:40.857Z,17.00
2019-01-03T01:01:40.887Z,17.20
2019-01-03T01:02:40.831Z,18.00
2019-01-03T01:03:40.842Z,17.20
2019-01-03T01:04:40.813Z,15.30
2019-01-03T01:05:40.799Z,18.70
2019-01-03T01:06:40.788Z,14.40
2019-01-03T01:07:40.789Z,17.10
2019-01-03T01:08:40.765Z,17.70
2019-01-03T01:09:40.755Z,16.20
2019-01-03T01:10:40.760Z,16.00
2019-01-03T01:11:40.732Z,17.30
2019-01-03T01:12:40.725Z,14.80
2019-01-03T01:13:40.747Z,14.40
2019-01-03T01:14:40.711Z,15.00
2019-01-03T01:15:40.692Z,18.10
2019-01-03T01:16:40.679Z,16.90
2019-01-03T01:17:40.673Z,14.50
2019-01-03T01:18:40.656Z,18.70
2019-01-03T01:19:40.672Z,17.80
2019-01-03T01:20:40.636Z,13.40
2019-01-03T01:21:40.625Z,17.20
2019-01-03T01:22:40.622Z,14.00
2019-01-03T01:23:40.601Z,17.50
2019-01-03T01:24:40.590Z,14.00
2019-01-03T01:25:40.593Z,15.40
2019-01-03T01:26:40.579Z,15.90
2019-01-03T01:27:40.572Z,16.80
2019-01-03T01:28:40.546Z,14.90
2019-01-03T01:29:40.535Z,11.10
2019-01-03T01:30:40.532Z,13.50
2019-01-03T01:31:40.542Z,16.00
2019-01-03T01:32:40.504Z,11.30
2019-01-03T01:33:40.495Z,13.40
2019-01-03T01:34:40.486Z,13.30
2019-01-03T01:35:40.472Z,12.70
2019-01-03T01:36:40.458Z,15.50
2019-01-03T01:37:40.458Z,15.00
2019-01-03T01:38:40.437Z,13.90
2019-01-03T01:39:40.428Z,14.50
2019-01-03T01:40:40.415Z,12.00
2019-01-03T01:41:40.403Z,15.40
2019-01-03T01:42:40.404Z,13.10
2019-01-03T01:43:40.395Z,13.90
2019-01-03T01:44:40.376Z,14.00
2019-01-03T01:45:40.366Z,12.10
2019-01-03T01:46:40.352Z,14.20
2019-01-03T01:47:40.342Z,12.30
2019-01-03T01:48:40.327Z,13.30
2019-01-03T01:49:40.352Z,12.60
2019-01-03T01:50:40.312Z,12.10
2019-01-03T01:51:40.298Z,11.50
2019-01-03T01:52:40.282Z,13.00
2019-01-03T01:53:40.274Z,13.60
2019-01-03T01:54:40.261Z,13.80
2019-01-03T01:55:40.276Z,12.70
2019-01-03T01:56:40.245Z,9.10
2019-01-03T01:57:40.229Z,12.30
2019-01-03T01:58:40.216Z,9.30
2019-01-03T01:59:40.206Z,11.00
2019-01-03T02:00:40.218Z,14.30
2019-01-03T02:01:40.196Z,11.30
2019-01-03T02:02:40.173Z,9.50
2019-01-03T02:03:40.168Z,11.30
2019-01-03T02:04:40.152Z,9.70
2019-01-03T02:05:40.156Z,11.60
2019-01-03T02:06:40.130Z,9.10
2019-01-03T02:07:40.127Z,11.00
2019-01-03T02:08:40.111Z,10.00
2019-01-03T02:09:40.098Z,9.90
2019-01-03T02:10:40.086Z,13.30
2019-01-03T02:11:40.078Z,10.80
2019-01-03T02:12:40.069Z,8.40
2019-01-03T02:13:40.095Z,9.80
2019-01-03T02:14:40.041Z,9.60
2019-01-03T02:15:40.034Z,10.20
2019-01-03T02:16:40.023Z,8.00
2019-01-03T02:17:40.009Z,11.50
2019-01-03T02:18:40.020Z,9.60
2019-01-03T02:19:39.999Z,9.70
2019-01-03T02:20:39.981Z,9.70
2019-01-03T02:21:39.968Z,10.90
2019-01-03T02:22:39.956Z,9.50
2019-01-03T02:23:39.952Z,9.90
2019-01-03T02:24:39.932Z,10.40
2019-01-03T02:25:39.933Z,10.90
2019-01-03T02:26:39.940Z,11.80
2019-01-03T02:27:39.901Z,10.80
2019-01-03T02:28:39.904Z,9.30
2019-01-03T02:29:39.880Z,10.80
2019-01-03T02:30:39.879Z,9.20
2019-01-03T02:31:39.874Z,9.00
2019-01-03T02:32:39.847Z,8.90
2019-01-03T02:33:39.833Z,10.00
2019-01-03T02:34:39.821Z,9.90
2019-01-03T02:35:39.811Z,10.50
2019-01-03T02:36:39.805Z,10.00
2019-01-03T02:37:39.822Z,9.40
2019-01-03T02:38:39.781Z,8.70
2019-01-03T02:39:39.774Z,11.20
2019-01-03T02:40:39.757Z,12.20
2019-01-03T02:41:39.745Z,8.40
2019-01-03T02:42:39.750Z,7.00
2019-01-03T02:43:39.749Z,7.50
2019-01-03T02:44:39.715Z,7.30
2019-01-03T02:45:39.703Z,8.30
2019-01-03T02:46:39.709Z,7.40
2019-01-03T02:47:39.688Z,9.70
2019-01-03T02:48:39.669Z,7.50
2019-01-03T02:49:39.687Z,9.60
2019-01-03T02:50:39.651Z,8.50
2019-01-03T02:51:39.636Z,8.10
2019-01-03T02:52:39.654Z,10.60
2019-01-03T02:53:39.618Z,7.60
2019-01-03T02:54:39.604Z,8.90
2019-01-03T02:55:39.603Z,9.20
2019-01-03T02:56:39.583Z,8.50
2019-01-03T02:57:39.569Z,9.20
2019-01-03T02:58:39.560Z,10.50
2019-01-03T02:59:39.558Z,8.40
2019-01-03T03:00:39.537Z,9.00
2019-01-03T03:01:39.557Z,7.20
2019-01-03T03:02:39.516Z,7.30
2019-01-03T03:03:39.504Z,6.80
2019-01-03T03:04:39.499Z,6.80
2019-01-03T03:05:39.481Z,7.60
2019-01-03T03:06:39.472Z,7.80
2019-01-03T03:07:39.475Z,9.10
2019-01-03T03:08:39.451Z,7.70
2019-01-03T03:09:39.439Z,9.00
2019-01-03T03:10:39.425Z,8.60
2019-01-03T03:11:39.415Z,8.60
2019-01-03T03:12:39.405Z,8.70
2019-01-03T03:13:39.422Z,7.90
2019-01-03T03:14:39.382Z,7.20
2019-01-03T03:15:39.380Z,6.20
2019-01-03T03:16:39.370Z,8.20
2019-01-03T03:17:39.351Z,8.70
2019-01-03T03:18:39.340Z,8.40
2019-01-03T03:19:39.362Z,8.90
2019-01-03T03:20:39.318Z,7.60
2019-01-03T03:21:39.312Z,8.00
2019-01-03T03:22:39.296Z,8.20
2019-01-03T03:23:39.284Z,6.80
2019-01-03T03:24:39.272Z,6.20
2019-01-03T03:25:39.294Z,7.00
2019-01-03T03:26:39.250Z,8.30
2019-01-03T03:27:39.239Z,7.80
2019-01-03T03:28:39.232Z,8.70
2019-01-03T03:29:39.219Z,7.00
2019-01-03T03:30:39.213Z,5.70
2019-01-03T03:31:39.229Z,8.00
2019-01-03T03:32:39.186Z,7.10
2019-01-03T03:33:39.176Z,7.80
2019-01-03T03:34:39.163Z,7.00
2019-01-03T03:35:39.152Z,7.60
2019-01-03T03:36:39.148Z,7.80
2019-01-03T03:37:39.170Z,7.60
2019-01-03T03:38:39.131Z,7.20
2019-01-03T03:39:39.116Z,7.10
2019-01-03T03:40:39.100Z,6.80
2019-01-03T03:41:39.086Z,7.20
2019-01-03T03:42:39.075Z,6.00
2019-01-03T03:43:39.075Z,7.20
2019-01-03T03:44:39.065Z,4.70
2019-01-03T03:45:39.058Z,6.40
2019-01-03T03:46:39.034Z,6.70
2019-01-03T03:47:39.020Z,5.80
2019-01-03T03:48:39.013Z,6.80
2019-01-03T03:49:39.006Z,7.40
2019-01-03T03:50:38.995Z,5.90
2019-01-03T03:51:38.989Z,6.40
2019-01-03T03:52:38.965Z,6.10
2019-01-03T03:53:38.984Z,5.40
2019-01-03T03:54:38.948Z,6.90
2019-01-03T03:55:38.943Z,5.70
2019-01-03T03:56:38.932Z,6.30
2019-01-03T03:57:38.910Z,6.70
2019-01-03T03:58:38.900Z,7.40
2019-01-03T03:59:38.888Z,4.70
2019-01-03T04:00:38.878Z,7.10
2019-01-03T04:01:38.894Z,6.80
2019-01-03T04:02:38.856Z,7.30
2019-01-03T04:03:38.845Z,7.10
2019-01-03T04:04:38.835Z,5.90
2019-01-03T04:05:38.822Z,5.20
2019-01-03T04:06:38.815Z,5.90
2019-01-03T04:07:38.814Z,8.10
2019-01-03T04:08:38.813Z,6.40
2019-01-03T04:09:38.777Z,5.40
2019-01-03T04:10:38.769Z,4.30
2019-01-03T04:11:38.760Z,6.10
2019-01-03T04:12:38.748Z,7.10
2019-01-03T04:13:38.745Z,6.80
2019-01-03T04:14:38.724Z,5.40
2019-01-03T04:15:38.712Z,7.80
2019-01-03T04:16:38.701Z,4.30
2019-01-03T04:17:38.692Z,6.70
2019-01-03T04:18:38.683Z,5.50
2019-01-03T04:19:38.697Z,5.00
2019-01-03T04:20:38.660Z,4.60
2019-01-03T04:21:38.672Z,5.40
2019-01-03T04:22:38.650Z,5.70
2019-01-03T04:23:38.629Z,6.30
2019-01-03T04:24:38.621Z,6.60
2019-01-03T04:25:38.623Z,6.20
2019-01-03T04:26:38.591Z,5.90
2019-01-03T04:27:38.580Z,5.10
2019-01-03T04:28:38.574Z,5.30
2019-01-03T04:29:38.561Z,6.40
2019-01-03T04:30:38.557Z,4.40
2019-01-03T04:31:38.580Z,7.30
2019-01-03T04:32:38.526Z,5.80
2019-01-03T04:33:38.514Z,5.60
2019-01-03T04:34:38.503Z,5.40
2019-01-03T04:35:38.492Z,4.40
2019-01-03T04:36:38.485Z,5.20
2019-01-03T04:37:38.490Z,5.70
2019-01-03T04:38:38.459Z,5.60
2019-01-03T04:39:38.448Z,5.90
2019-01-03T04:40:38.440Z,5.50
2019-01-03T04:41:38.443Z,5.90
2019-01-03T04:42:38.417Z,6.00
2019-01-03T04:43:38.434Z,5.40
2019-01-03T04:44:38.394Z,6.20
2019-01-03T04:45:38.388Z,7.50
2019-01-03T04:46:38.378Z,4.60
2019-01-03T04:47:38.368Z,5.60
2019-01-03T04:48:38.353Z,4.90
2019-01-03T04:49:38.348Z,6.00
2019-01-03T04:50:38.336Z,5.40
2019-01-03T04:51:38.319Z,6.00
2019-01-03T04:52:38.305Z,4.60
2019-01-03T04:53:38.298Z,5.60
2019-01-03T04:54:38.283Z,5.40
2019-01-03T04:55:38.282Z,5.60
2019-01-03T04:56:38.275Z,4.40
2019-01-03T04:57:38.256Z,4.40
2019-01-03T04:58:38.243Z,4.40
2019-01-03T04:59:38.226Z,5.40
2019-01-03T05:00:38.217Z,7.10
2019-01-03T05:01:38.217Z,4.50
2019-01-03T05:02:38.196Z,5.00
2019-01-03T05:03:38.187Z,4.80
2019-01-03T05:04:38.181Z,4.70
2019-01-03T05:05:38.171Z,3.80
2019-01-03T05:06:38.157Z,5.80
2019-01-03T05:07:38.151Z,5.20
2019-01-03T05:08:38.136Z,5.60
2019-01-03T05:09:38.128Z,4.10
2019-01-03T05:10:38.112Z,5.30
2019-01-03T05:11:38.104Z,4.10
2019-01-03T05:12:38.085Z,4.60
2019-01-03T05:13:38.083Z,4.40
2019-01-03T05:14:38.068Z,4.90
2019-01-03T05:15:38.055Z,4.30
2019-01-03T05:16:38.041Z,4.40
2019-01-03T05:17:38.049Z,6.10
2019-01-03T05:18:38.019Z,4.30
2019-01-03T05:19:38.074Z,6.70
2019-01-03T05:20:38.002Z,5.90
2019-01-03T05:21:37.999Z,4.70
2019-01-03T05:22:37.980Z,4.10
2019-01-03T05:23:37.965Z,6.00
2019-01-03T05:24:37.964Z,5.40
2019-01-03T05:25:37.956Z,5.80
2019-01-03T05:26:37.937Z,4.20
2019-01-03T05:27:37.930Z,5.00
2019-01-03T05:28:37.914Z,4.20
2019-01-03T05:29:37.904Z,3.60
2019-01-03T05:30:37.900Z,5.10
2019-01-03T05:31:37.890Z,4.60
2019-01-03T05:32:37.866Z,3.90
2019-01-03T05:33:37.854Z,4.40
2019-01-03T05:34:37.855Z,4.00
2019-01-03T05:35:37.832Z,4.00
2019-01-03T05:36:37.824Z,3.70
2019-01-03T05:37:37.821Z,4.00
2019-01-03T05:38:37.806Z,4.20
2019-01-03T05:39:37.791Z,4.20
2019-01-03T05:40:37.781Z,4.40
2019-01-03T05:41:37.766Z,3.90
2019-01-03T05:42:37.765Z,3.50
2019-01-03T05:43:37.756Z,3.50
2019-01-03T05:44:37.734Z,4.50
2019-01-03T05:45:37.726Z,4.30
2019-01-03T05:46:37.714Z,4.40
2019-01-03T05:47:37.701Z,4.00
2019-01-03T05:48:37.693Z,3.80
2019-01-03T05:49:37.711Z,3.80
2019-01-03T05:50:37.668Z,3.40
2019-01-03T05:51:37.657Z,4.50
2019-01-03T05:52:37.646Z,3.40
2019-01-03T05:53:37.658Z,3.90
2019-01-03T05:54:37.627Z,3.30
2019-01-03T05:55:37.641Z,4.20
2019-01-03T05:56:37.604Z,4.40
2019-01-03T05:57:37.626Z,4.20
2019-01-03T05:58:37.584Z,4.00
2019-01-03T05:59:37.570Z,4.90
2019-01-03T06:00:37.558Z,3.70
2019-01-03T06:01:37.562Z,4.80
2019-01-03T06:02:37.549Z,3.10
2019-01-03T06:03:37.525Z,4.10
2019-01-03T06:04:37.514Z,3.50
2019-01-03T06:05:37.508Z,4.30
2019-01-03T06:06:37.493Z,4.10
2019-01-03T06:07:37.511Z,3.70
2019-01-03T06:08:37.470Z,3.00
2019-01-03T06:09:37.458Z,3.70
2019-01-03T06:10:37.449Z,3.60
2019-01-03T06:11:37.439Z,3.30
2019-01-03T06:12:37.432Z,2.80
2019-01-03T06:13:37.446Z,4.10
2019-01-03T06:14:37.404Z,3.00
2019-01-03T06:15:37.393Z,3.10
2019-01-03T06:16:37.381Z,2.90
2019-01-03T06:17:37.371Z,4.00
2019-01-03T06:18:37.363Z,3.40
2019-01-03T06:19:37.381Z,4.20
2019-01-03T06:20:37.338Z,4.60
2019-01-03T06:21:37.330Z,4.00
2019-01-03T06:22:37.320Z,4.40
2019-01-03T06:23:37.305Z,3.50
2019-01-03T06:24:37.294Z,3.40
2019-01-03T06:25:37.298Z,3.90
2019-01-03T06:26:37.273Z,5.10
2019-01-03T06:27:37.261Z,2.70
2019-01-03T06:28:37.253Z,2.90
2019-01-03T06:29:37.239Z,2.80
2019-01-03T06:30:37.235Z,5.10
2019-01-03T06:31:37.226Z,3.30
2019-01-03T06:32:37.206Z,2.90
